sensor_id;sensor_type;location;lat;lon;timestamp;P1;durP1;ratioP1;P2;durP2;ratioP2
22476;SDS011;65006;51.698;-0.292;2023-05-19T00:01:28;9.30;;;2.22;;
22476;SDS011;65006;51.698;-0.292;2023-05-19T00:03:55;3.70;;;2.53;;
22476;SDS011;65006;51.698;-0.292;2023-05-19T00:06:23;6.47;;;2.65;;
22476;SDS011;65006;51.698;-0.292;2023-05-19T00:08:57;4.10;;;2.35;;
22476;SDS011;65006;51.698;-0.292;2023-05-19T00:11:24;6.10;;;2.50;;
22476;SDS011;65006;51.698;-0.292;2023-05-19T00:16:16;5.10;;;2.45;;
22476;SDS011;65006;51.698;-0.292;2023-05-19T00:18:42;7.15;;;2.45;;
22476;SDS011;65006;51.698;-0.292;2023-05-19T00:21:08;10.05;;;2.67;;
22476;SDS011;65006;51.698;-0.292;2023-05-19T00:23:34;7.00;;;2.45;;
22476;SDS011;65006;51.698;-0.292;2023-05-19T00:26:00;6.65;;;2.42;;
22476;SDS011;65006;51.698;-0.292;2023-05-19T00:28:26;4.97;;;2.25;;
22476;SDS011;65006;51.698;-0.292;2023-05-19T00:30:52;4.45;;;2.53;;
22476;SDS011;65006;51.698;-0.292;2023-05-19T00:33:18;11.23;;;2.80;;
22476;SDS011;65006;51.698;-0.292;2023-05-19T00:35:44;4.72;;;2.78;;
22476;SDS011;65006;51.698;-0.292;2023-05-19T00:38:10;6.00;;;2.90;;
22476;SDS011;65006;51.698;-0.292;2023-05-19T00:40:36;5.20;;;2.75;;
22476;SDS011;65006;51.698;-0.292;2023-05-19T00:43:02;4.45;;;2.67;;
22476;SDS011;65006;51.698;-0.292;2023-05-19T00:45:32;7.90;;;2.00;;
22476;SDS011;65006;51.698;-0.292;2023-05-19T00:47:58;4.65;;;2.50;;
22476;SDS011;65006;51.698;-0.292;2023-05-19T00:50:24;6.40;;;2.58;;
22476;SDS011;65006;51.698;-0.292;2023-05-19T00:52:52;4.53;;;2.30;;
22476;SDS011;65006;51.698;-0.292;2023-05-19T00:55:18;7.45;;;2.42;;
22476;SDS011;65006;51.698;-0.292;2023-05-19T00:57:45;6.57;;;2.70;;
22476;SDS011;65006;51.698;-0.292;2023-05-19T01:00:11;8.52;;;2.78;;
22476;SDS011;65006;51.698;-0.292;2023-05-19T01:02:37;9.30;;;3.38;;
22476;SDS011;65006;51.698;-0.292;2023-05-19T01:05:04;8.18;;;2.40;;
22476;SDS011;65006;51.698;-0.292;2023-05-19T01:07:31;7.03;;;2.63;;
22476;SDS011;65006;51.698;-0.292;2023-05-19T01:09:57;13.30;;;3.58;;
22476;SDS011;65006;51.698;-0.292;2023-05-19T01:12:23;10.45;;;3.05;;
22476;SDS011;65006;51.698;-0.292;2023-05-19T01:14:50;13.15;;;3.47;;
22476;SDS011;65006;51.698;-0.292;2023-05-19T01:17:36;11.30;;;3.25;;
22476;SDS011;65006;51.698;-0.292;2023-05-19T01:20:15;7.60;;;3.20;;
22476;SDS011;65006;51.698;-0.292;2023-05-19T01:33:05;9.50;;;3.40;;
22476;SDS011;65006;51.698;-0.292;2023-05-19T01:35:34;6.45;;;3.25;;
22476;SDS011;65006;51.698;-0.292;2023-05-19T01:38:00;15.38;;;3.25;;
22476;SDS011;65006;51.698;-0.292;2023-05-19T01:40:27;7.93;;;3.33;;
22476;SDS011;65006;51.698;-0.292;2023-05-19T01:42:54;9.85;;;3.40;;
22476;SDS011;65006;51.698;-0.292;2023-05-19T01:45:21;8.02;;;2.95;;
22476;SDS011;65006;51.698;-0.292;2023-05-19T01:47:48;11.60;;;3.97;;
22476;SDS011;65006;51.698;-0.292;2023-05-19T01:50:14;12.27;;;3.63;;
22476;SDS011;65006;51.698;-0.292;2023-05-19T01:52:40;12.30;;;3.30;;
22476;SDS011;65006;51.698;-0.292;2023-05-19T01:55:06;6.65;;;3.30;;
22476;SDS011;65006;51.698;-0.292;2023-05-19T02:00:45;11.45;;;3.67;;
22476;SDS011;65006;51.698;-0.292;2023-05-19T02:02:54;14.25;;;3.15;;
22476;SDS011;65006;51.698;-0.292;2023-05-19T02:05:22;7.15;;;2.65;;
22476;SDS011;65006;51.698;-0.292;2023-05-19T02:08:05;9.00;;;3.63;;
22476;SDS011;65006;51.698;-0.292;2023-05-19T02:10:35;12.07;;;3.67;;
22476;SDS011;65006;51.698;-0.292;2023-05-19T02:15:29;23.65;;;3.08;;
22476;SDS011;65006;51.698;-0.292;2023-05-19T02:17:58;12.65;;;2.95;;
22476;SDS011;65006;51.698;-0.292;2023-05-19T02:20:28;7.78;;;2.63;;
22476;SDS011;65006;51.698;-0.292;2023-05-19T02:22:54;3.75;;;2.15;;
22476;SDS011;65006;51.698;-0.292;2023-05-19T02:25:20;4.75;;;2.00;;
22476;SDS011;65006;51.698;-0.292;2023-05-19T02:27:48;4.78;;;2.10;;
22476;SDS011;65006;51.698;-0.292;2023-05-19T02:30:14;3.15;;;1.90;;
22476;SDS011;65006;51.698;-0.292;2023-05-19T02:32:40;5.20;;;1.80;;
22476;SDS011;65006;51.698;-0.292;2023-05-19T02:35:06;7.57;;;2.72;;
22476;SDS011;65006;51.698;-0.292;2023-05-19T02:37:32;1.98;;;1.30;;
22476;SDS011;65006;51.698;-0.292;2023-05-19T02:39:59;5.45;;;2.20;;
22476;SDS011;65006;51.698;-0.292;2023-05-19T02:42:25;6.55;;;2.58;;
22476;SDS011;65006;51.698;-0.292;2023-05-19T02:44:52;1.60;;;1.10;;
22476;SDS011;65006;51.698;-0.292;2023-05-19T02:47:18;4.32;;;2.05;;
22476;SDS011;65006;51.698;-0.292;2023-05-19T02:49:44;3.25;;;2.20;;
22476;SDS011;65006;51.698;-0.292;2023-05-19T02:52:10;3.47;;;1.60;;
22476;SDS011;65006;51.698;-0.292;2023-05-19T02:54:36;2.30;;;1.50;;
22476;SDS011;65006;51.698;-0.292;2023-05-19T02:57:02;5.25;;;1.33;;
22476;SDS011;65006;51.698;-0.292;2023-05-19T02:59:28;6.22;;;2.10;;
22476;SDS011;65006;51.698;-0.292;2023-05-19T03:01:57;3.92;;;1.75;;
22476;SDS011;65006;51.698;-0.292;2023-05-19T03:04:23;2.22;;;1.52;;
22476;SDS011;65006;51.698;-0.292;2023-05-19T03:06:49;3.38;;;1.55;;
22476;SDS011;65006;51.698;-0.292;2023-05-19T03:09:15;4.28;;;1.50;;
22476;SDS011;65006;51.698;-0.292;2023-05-19T03:11:41;7.53;;;2.30;;
22476;SDS011;65006;51.698;-0.292;2023-05-19T03:14:07;4.70;;;1.88;;
22476;SDS011;65006;51.698;-0.292;2023-05-19T03:16:34;3.42;;;1.65;;
22476;SDS011;65006;51.698;-0.292;2023-05-19T03:19:00;2.90;;;1.83;;
22476;SDS011;65006;51.698;-0.292;2023-05-19T03:21:26;2.83;;;1.60;;
22476;SDS011;65006;51.698;-0.292;2023-05-19T03:23:52;3.10;;;2.05;;
22476;SDS011;65006;51.698;-0.292;2023-05-19T03:26:18;4.63;;;1.88;;
22476;SDS011;65006;51.698;-0.292;2023-05-19T03:28:44;2.53;;;1.95;;
22476;SDS011;65006;51.698;-0.292;2023-05-19T03:31:11;4.88;;;2.00;;
22476;SDS011;65006;51.698;-0.292;2023-05-19T03:33:37;2.95;;;1.50;;
22476;SDS011;65006;51.698;-0.292;2023-05-19T03:36:03;1.85;;;1.35;;
22476;SDS011;65006;51.698;-0.292;2023-05-19T03:38:29;2.40;;;1.63;;
22476;SDS011;65006;51.698;-0.292;2023-05-19T03:40:55;3.95;;;1.60;;
22476;SDS011;65006;51.698;-0.292;2023-05-19T03:43:22;1.98;;;1.55;;
22476;SDS011;65006;51.698;-0.292;2023-05-19T03:45:48;2.50;;;1.60;;
22476;SDS011;65006;51.698;-0.292;2023-05-19T03:48:14;5.30;;;1.98;;
22476;SDS011;65006;51.698;-0.292;2023-05-19T03:50:40;4.05;;;1.85;;
22476;SDS011;65006;51.698;-0.292;2023-05-19T03:53:08;4.75;;;1.88;;
22476;SDS011;65006;51.698;-0.292;2023-05-19T03:55:34;2.95;;;1.48;;
22476;SDS011;65006;51.698;-0.292;2023-05-19T03:58:01;3.30;;;1.98;;
22476;SDS011;65006;51.698;-0.292;2023-05-19T04:00:27;4.55;;;1.98;;
22476;SDS011;65006;51.698;-0.292;2023-05-19T04:02:53;5.30;;;2.42;;
22476;SDS011;65006;51.698;-0.292;2023-05-19T04:05:19;2.80;;;2.10;;
22476;SDS011;65006;51.698;-0.292;2023-05-19T04:07:45;7.00;;;1.80;;
22476;SDS011;65006;51.698;-0.292;2023-05-19T04:10:11;3.42;;;2.25;;
22476;SDS011;65006;51.698;-0.292;2023-05-19T04:12:37;2.80;;;1.50;;
22476;SDS011;65006;51.698;-0.292;2023-05-19T04:15:03;4.93;;;2.25;;
22476;SDS011;65006;51.698;-0.292;2023-05-19T04:17:30;3.35;;;2.17;;
22476;SDS011;65006;51.698;-0.292;2023-05-19T04:19:56;5.35;;;1.98;;
22476;SDS011;65006;51.698;-0.292;2023-05-19T04:22:22;3.20;;;2.25;;
22476;SDS011;65006;51.698;-0.292;2023-05-19T04:24:48;4.28;;;1.77;;
22476;SDS011;65006;51.698;-0.292;2023-05-19T04:27:15;2.70;;;1.60;;
22476;SDS011;65006;51.698;-0.292;2023-05-19T04:29:42;3.75;;;2.50;;
22476;SDS011;65006;51.698;-0.292;2023-05-19T04:32:10;3.08;;;1.92;;
22476;SDS011;65006;51.698;-0.292;2023-05-19T04:34:41;4.10;;;2.10;;
22476;SDS011;65006;51.698;-0.292;2023-05-19T04:37:09;4.13;;;2.42;;
22476;SDS011;65006;51.698;-0.292;2023-05-19T04:39:35;3.50;;;2.20;;
22476;SDS011;65006;51.698;-0.292;2023-05-19T04:42:07;2.88;;;1.88;;
22476;SDS011;65006;51.698;-0.292;2023-05-19T04:44:34;3.85;;;1.65;;
22476;SDS011;65006;51.698;-0.292;2023-05-19T04:47:02;3.45;;;2.15;;
22476;SDS011;65006;51.698;-0.292;2023-05-19T04:49:30;5.43;;;1.73;;
22476;SDS011;65006;51.698;-0.292;2023-05-19T04:51:56;2.38;;;1.58;;
22476;SDS011;65006;51.698;-0.292;2023-05-19T04:54:25;2.70;;;1.52;;
22476;SDS011;65006;51.698;-0.292;2023-05-19T04:56:51;6.03;;;2.45;;
22476;SDS011;65006;51.698;-0.292;2023-05-19T04:59:17;2.88;;;1.85;;
22476;SDS011;65006;51.698;-0.292;2023-05-19T05:01:43;3.97;;;1.37;;
22476;SDS011;65006;51.698;-0.292;2023-05-19T05:04:09;5.22;;;1.88;;
22476;SDS011;65006;51.698;-0.292;2023-05-19T05:06:35;2.47;;;1.65;;
22476;SDS011;65006;51.698;-0.292;2023-05-19T05:09:02;2.58;;;1.75;;
22476;SDS011;65006;51.698;-0.292;2023-05-19T05:11:28;4.82;;;2.35;;
22476;SDS011;65006;51.698;-0.292;2023-05-19T05:13:55;4.05;;;2.13;;
22476;SDS011;65006;51.698;-0.292;2023-05-19T05:16:22;4.15;;;2.03;;
22476;SDS011;65006;51.698;-0.292;2023-05-19T05:18:48;4.07;;;1.70;;
22476;SDS011;65006;51.698;-0.292;2023-05-19T05:21:14;5.97;;;2.38;;
22476;SDS011;65006;51.698;-0.292;2023-05-19T05:23:40;5.18;;;2.00;;
22476;SDS011;65006;51.698;-0.292;2023-05-19T05:26:16;8.48;;;2.13;;
22476;SDS011;65006;51.698;-0.292;2023-05-19T05:28:43;6.90;;;2.47;;
22476;SDS011;65006;51.698;-0.292;2023-05-19T05:31:09;2.47;;;1.88;;
22476;SDS011;65006;51.698;-0.292;2023-05-19T05:33:36;5.50;;;2.05;;
22476;SDS011;65006;51.698;-0.292;2023-05-19T05:36:03;2.55;;;1.50;;
22476;SDS011;65006;51.698;-0.292;2023-05-19T05:38:29;4.13;;;2.08;;
22476;SDS011;65006;51.698;-0.292;2023-05-19T05:40:56;2.38;;;1.73;;
22476;SDS011;65006;51.698;-0.292;2023-05-19T05:43:22;1.88;;;1.30;;
22476;SDS011;65006;51.698;-0.292;2023-05-19T05:45:48;3.35;;;1.92;;
22476;SDS011;65006;51.698;-0.292;2023-05-19T05:48:14;4.53;;;1.70;;
22476;SDS011;65006;51.698;-0.292;2023-05-19T05:50:41;5.18;;;2.10;;
22476;SDS011;65006;51.698;-0.292;2023-05-19T05:53:09;4.53;;;2.13;;
22476;SDS011;65006;51.698;-0.292;2023-05-19T05:55:38;6.43;;;1.77;;
22476;SDS011;65006;51.698;-0.292;2023-05-19T05:58:05;2.47;;;1.80;;
22476;SDS011;65006;51.698;-0.292;2023-05-19T06:00:34;4.60;;;1.65;;
22476;SDS011;65006;51.698;-0.292;2023-05-19T06:03:01;3.83;;;1.50;;
22476;SDS011;65006;51.698;-0.292;2023-05-19T06:05:27;2.80;;;2.22;;
22476;SDS011;65006;51.698;-0.292;2023-05-19T06:07:53;2.83;;;1.85;;
22476;SDS011;65006;51.698;-0.292;2023-05-19T06:10:19;5.55;;;1.67;;
22476;SDS011;65006;51.698;-0.292;2023-05-19T06:12:45;5.22;;;1.73;;
22476;SDS011;65006;51.698;-0.292;2023-05-19T06:15:11;6.00;;;2.53;;
22476;SDS011;65006;51.698;-0.292;2023-05-19T06:17:37;2.20;;;1.70;;
22476;SDS011;65006;51.698;-0.292;2023-05-19T06:20:03;5.05;;;2.25;;
22476;SDS011;65006;51.698;-0.292;2023-05-19T06:22:34;6.25;;;2.45;;
22476;SDS011;65006;51.698;-0.292;2023-05-19T06:25:00;4.28;;;2.15;;
22476;SDS011;65006;51.698;-0.292;2023-05-19T06:27:26;4.35;;;1.88;;
22476;SDS011;65006;51.698;-0.292;2023-05-19T06:29:52;3.80;;;2.40;;
22476;SDS011;65006;51.698;-0.292;2023-05-19T06:32:18;4.07;;;1.85;;
22476;SDS011;65006;51.698;-0.292;2023-05-19T06:34:44;3.00;;;1.90;;
22476;SDS011;65006;51.698;-0.292;2023-05-19T06:37:10;5.03;;;2.38;;
22476;SDS011;65006;51.698;-0.292;2023-05-19T06:39:38;4.53;;;2.22;;
22476;SDS011;65006;51.698;-0.292;2023-05-19T06:42:04;3.08;;;2.20;;
22476;SDS011;65006;51.698;-0.292;2023-05-19T06:44:30;5.60;;;2.10;;
22476;SDS011;65006;51.698;-0.292;2023-05-19T06:46:56;3.67;;;1.98;;
22476;SDS011;65006;51.698;-0.292;2023-05-19T06:49:22;4.65;;;1.50;;
22476;SDS011;65006;51.698;-0.292;2023-05-19T06:51:48;4.75;;;2.38;;
22476;SDS011;65006;51.698;-0.292;2023-05-19T06:54:14;3.58;;;1.75;;
22476;SDS011;65006;51.698;-0.292;2023-05-19T06:56:40;4.30;;;1.65;;
22476;SDS011;65006;51.698;-0.292;2023-05-19T06:59:06;6.38;;;2.00;;
22476;SDS011;65006;51.698;-0.292;2023-05-19T07:01:32;3.15;;;1.83;;
22476;SDS011;65006;51.698;-0.292;2023-05-19T07:03:58;3.70;;;1.45;;
22476;SDS011;65006;51.698;-0.292;2023-05-19T07:06:24;5.82;;;1.40;;
22476;SDS011;65006;51.698;-0.292;2023-05-19T07:08:50;3.03;;;1.17;;
22476;SDS011;65006;51.698;-0.292;2023-05-19T07:11:16;4.53;;;1.50;;
22476;SDS011;65006;51.698;-0.292;2023-05-19T07:13:42;1.92;;;1.05;;
22476;SDS011;65006;51.698;-0.292;2023-05-19T07:16:08;2.65;;;1.40;;
22476;SDS011;65006;51.698;-0.292;2023-05-19T07:18:34;3.92;;;2.20;;
22476;SDS011;65006;51.698;-0.292;2023-05-19T07:21:00;3.83;;;2.17;;
22476;SDS011;65006;51.698;-0.292;2023-05-19T07:23:26;6.05;;;2.20;;
22476;SDS011;65006;51.698;-0.292;2023-05-19T07:25:55;4.15;;;2.30;;
22476;SDS011;65006;51.698;-0.292;2023-05-19T07:28:21;2.22;;;1.52;;
22476;SDS011;65006;51.698;-0.292;2023-05-19T07:30:47;4.00;;;1.90;;
22476;SDS011;65006;51.698;-0.292;2023-05-19T07:33:13;5.65;;;2.00;;
22476;SDS011;65006;51.698;-0.292;2023-05-19T07:35:40;2.78;;;1.67;;
22476;SDS011;65006;51.698;-0.292;2023-05-19T07:38:06;2.22;;;1.60;;
22476;SDS011;65006;51.698;-0.292;2023-05-19T07:40:32;6.47;;;2.55;;
22476;SDS011;65006;51.698;-0.292;2023-05-19T07:42:58;3.97;;;1.70;;
22476;SDS011;65006;51.698;-0.292;2023-05-19T07:45:23;4.40;;;1.55;;
22476;SDS011;65006;51.698;-0.292;2023-05-19T07:47:49;2.47;;;1.73;;
22476;SDS011;65006;51.698;-0.292;2023-05-19T07:50:16;3.60;;;1.48;;
22476;SDS011;65006;51.698;-0.292;2023-05-19T07:52:42;3.15;;;1.63;;
22476;SDS011;65006;51.698;-0.292;2023-05-19T07:55:08;4.22;;;1.65;;
22476;SDS011;65006;51.698;-0.292;2023-05-19T07:57:35;3.28;;;1.60;;
22476;SDS011;65006;51.698;-0.292;2023-05-19T08:00:01;2.03;;;1.20;;
22476;SDS011;65006;51.698;-0.292;2023-05-19T08:02:31;2.58;;;1.67;;
22476;SDS011;65006;51.698;-0.292;2023-05-19T08:04:57;2.13;;;1.08;;
22476;SDS011;65006;51.698;-0.292;2023-05-19T08:07:23;3.80;;;2.05;;
22476;SDS011;65006;51.698;-0.292;2023-05-19T08:09:49;3.08;;;2.10;;
22476;SDS011;65006;51.698;-0.292;2023-05-19T08:12:16;5.35;;;1.85;;
22476;SDS011;65006;51.698;-0.292;2023-05-19T08:14:42;3.65;;;1.55;;
22476;SDS011;65006;51.698;-0.292;2023-05-19T08:17:08;8.82;;;2.28;;
22476;SDS011;65006;51.698;-0.292;2023-05-19T08:19:34;4.50;;;1.92;;
22476;SDS011;65006;51.698;-0.292;2023-05-19T08:22:00;4.38;;;1.65;;
22476;SDS011;65006;51.698;-0.292;2023-05-19T08:24:27;2.38;;;1.38;;
22476;SDS011;65006;51.698;-0.292;2023-05-19T08:26:54;2.83;;;1.83;;
22476;SDS011;65006;51.698;-0.292;2023-05-19T08:29:20;5.72;;;2.00;;
22476;SDS011;65006;51.698;-0.292;2023-05-19T08:31:46;3.22;;;2.05;;
22476;SDS011;65006;51.698;-0.292;2023-05-19T08:34:12;5.10;;;1.80;;
22476;SDS011;65006;51.698;-0.292;2023-05-19T08:36:38;3.83;;;1.75;;
22476;SDS011;65006;51.698;-0.292;2023-05-19T08:39:05;4.50;;;1.65;;
22476;SDS011;65006;51.698;-0.292;2023-05-19T08:41:32;3.53;;;1.88;;
22476;SDS011;65006;51.698;-0.292;2023-05-19T08:43:58;2.13;;;1.70;;
22476;SDS011;65006;51.698;-0.292;2023-05-19T08:46:24;3.15;;;1.98;;
22476;SDS011;65006;51.698;-0.292;2023-05-19T08:48:51;2.47;;;1.60;;
22476;SDS011;65006;51.698;-0.292;2023-05-19T08:51:32;5.22;;;1.88;;
22476;SDS011;65006;51.698;-0.292;2023-05-19T08:54:13;2.97;;;1.77;;
22476;SDS011;65006;51.698;-0.292;2023-05-19T08:56:41;2.67;;;1.40;;
22476;SDS011;65006;51.698;-0.292;2023-05-19T08:59:07;1.98;;;1.33;;
22476;SDS011;65006;51.698;-0.292;2023-05-19T09:01:36;2.13;;;1.50;;
22476;SDS011;65006;51.698;-0.292;2023-05-19T09:04:03;1.90;;;1.35;;
22476;SDS011;65006;51.698;-0.292;2023-05-19T09:06:30;2.22;;;1.50;;
22476;SDS011;65006;51.698;-0.292;2023-05-19T09:08:56;4.30;;;1.88;;
22476;SDS011;65006;51.698;-0.292;2023-05-19T09:11:22;6.75;;;1.88;;
22476;SDS011;65006;51.698;-0.292;2023-05-19T09:13:48;3.20;;;1.52;;
22476;SDS011;65006;51.698;-0.292;2023-05-19T09:16:15;4.75;;;1.85;;
22476;SDS011;65006;51.698;-0.292;2023-05-19T09:18:52;4.47;;;1.65;;
22476;SDS011;65006;51.698;-0.292;2023-05-19T09:21:19;2.80;;;1.50;;
22476;SDS011;65006;51.698;-0.292;2023-05-19T09:23:45;1.90;;;1.17;;
22476;SDS011;65006;51.698;-0.292;2023-05-19T09:26:13;3.42;;;1.50;;
22476;SDS011;65006;51.698;-0.292;2023-05-19T09:28:39;0.93;;;0.88;;
22476;SDS011;65006;51.698;-0.292;2023-05-19T09:31:06;1.55;;;1.13;;
22476;SDS011;65006;51.698;-0.292;2023-05-19T09:33:33;1.63;;;0.90;;
22476;SDS011;65006;51.698;-0.292;2023-05-19T09:36:00;1.70;;;0.75;;
22476;SDS011;65006;51.698;-0.292;2023-05-19T09:38:27;2.30;;;1.17;;
22476;SDS011;65006;51.698;-0.292;2023-05-19T09:40:56;3.08;;;0.95;;
22476;SDS011;65006;51.698;-0.292;2023-05-19T09:43:23;3.55;;;1.20;;
22476;SDS011;65006;51.698;-0.292;2023-05-19T09:45:59;1.63;;;1.17;;
22476;SDS011;65006;51.698;-0.292;2023-05-19T09:48:26;3.15;;;0.88;;
22476;SDS011;65006;51.698;-0.292;2023-05-19T09:50:52;1.83;;;1.20;;
22476;SDS011;65006;51.698;-0.292;2023-05-19T09:55:44;6.50;;;1.23;;
22476;SDS011;65006;51.698;-0.292;2023-05-19T09:58:14;1.88;;;1.08;;
22476;SDS011;65006;51.698;-0.292;2023-05-19T10:00:41;2.95;;;1.08;;
22476;SDS011;65006;51.698;-0.292;2023-05-19T10:03:07;1.75;;;0.80;;
22476;SDS011;65006;51.698;-0.292;2023-05-19T10:05:34;0.68;;;0.68;;
22476;SDS011;65006;51.698;-0.292;2023-05-19T10:08:00;3.05;;;0.95;;
22476;SDS011;65006;51.698;-0.292;2023-05-19T10:10:26;1.80;;;1.10;;
22476;SDS011;65006;51.698;-0.292;2023-05-19T10:12:55;1.48;;;0.82;;
22476;SDS011;65006;51.698;-0.292;2023-05-19T10:15:22;2.38;;;1.20;;
22476;SDS011;65006;51.698;-0.292;2023-05-19T10:17:49;1.75;;;1.30;;
22476;SDS011;65006;51.698;-0.292;2023-05-19T10:20:16;1.52;;;0.77;;
22476;SDS011;65006;51.698;-0.292;2023-05-19T10:22:43;4.45;;;0.85;;
22476;SDS011;65006;51.698;-0.292;2023-05-19T10:25:09;1.15;;;0.77;;
22476;SDS011;65006;51.698;-0.292;2023-05-19T10:27:57;2.40;;;1.10;;
22476;SDS011;65006;51.698;-0.292;2023-05-19T10:30:28;1.42;;;0.90;;
22476;SDS011;65006;51.698;-0.292;2023-05-19T10:32:56;1.33;;;0.82;;
22476;SDS011;65006;51.698;-0.292;2023-05-19T10:40:32;3.35;;;1.05;;
22476;SDS011;65006;51.698;-0.292;2023-05-19T10:45:28;2.70;;;1.30;;
22476;SDS011;65006;51.698;-0.292;2023-05-19T10:47:55;2.05;;;1.10;;
22476;SDS011;65006;51.698;-0.292;2023-05-19T10:50:21;2.50;;;0.95;;
22476;SDS011;65006;51.698;-0.292;2023-05-19T10:52:54;2.30;;;1.05;;
22476;SDS011;65006;51.698;-0.292;2023-05-19T10:58:06;1.83;;;0.95;;
22476;SDS011;65006;51.698;-0.292;2023-05-19T11:00:33;2.22;;;0.98;;
22476;SDS011;65006;51.698;-0.292;2023-05-19T11:03:11;1.65;;;1.30;;
22476;SDS011;65006;51.698;-0.292;2023-05-19T11:05:38;3.85;;;1.40;;
22476;SDS011;65006;51.698;-0.292;2023-05-19T11:08:04;3.83;;;1.30;;
22476;SDS011;65006;51.698;-0.292;2023-05-19T11:10:35;2.63;;;1.60;;
22476;SDS011;65006;51.698;-0.292;2023-05-19T11:13:01;2.15;;;1.30;;
22476;SDS011;65006;51.698;-0.292;2023-05-19T11:15:32;1.65;;;1.02;;
22476;SDS011;65006;51.698;-0.292;2023-05-19T11:17:58;1.45;;;0.80;;
22476;SDS011;65006;51.698;-0.292;2023-05-19T11:20:26;3.25;;;1.58;;
22476;SDS011;65006;51.698;-0.292;2023-05-19T11:25:18;2.53;;;1.40;;
22476;SDS011;65006;51.698;-0.292;2023-05-19T11:28:04;3.03;;;1.42;;
22476;SDS011;65006;51.698;-0.292;2023-05-19T11:30:30;1.95;;;1.17;;
22476;SDS011;65006;51.698;-0.292;2023-05-19T11:32:56;4.53;;;1.40;;
22476;SDS011;65006;51.698;-0.292;2023-05-19T11:35:23;4.20;;;1.58;;
22476;SDS011;65006;51.698;-0.292;2023-05-19T11:37:52;3.85;;;1.20;;
22476;SDS011;65006;51.698;-0.292;2023-05-19T11:40:19;2.47;;;1.20;;
22476;SDS011;65006;51.698;-0.292;2023-05-19T11:42:46;2.80;;;1.50;;
22476;SDS011;65006;51.698;-0.292;2023-05-19T11:45:12;2.53;;;1.35;;
22476;SDS011;65006;51.698;-0.292;2023-05-19T11:47:38;1.98;;;1.35;;
22476;SDS011;65006;51.698;-0.292;2023-05-19T11:50:04;3.35;;;1.50;;
22476;SDS011;65006;51.698;-0.292;2023-05-19T11:52:30;3.55;;;1.45;;
22476;SDS011;65006;51.698;-0.292;2023-05-19T11:54:59;5.57;;;1.88;;
22476;SDS011;65006;51.698;-0.292;2023-05-19T11:57:25;2.58;;;1.38;;
22476;SDS011;65006;51.698;-0.292;2023-05-19T11:59:51;2.78;;;1.23;;
22476;SDS011;65006;51.698;-0.292;2023-05-19T12:02:21;2.63;;;1.20;;
22476;SDS011;65006;51.698;-0.292;2023-05-19T12:04:48;4.68;;;1.80;;
22476;SDS011;65006;51.698;-0.292;2023-05-19T12:07:14;2.90;;;1.35;;
22476;SDS011;65006;51.698;-0.292;2023-05-19T12:09:44;1.23;;;0.88;;
22476;SDS011;65006;51.698;-0.292;2023-05-19T12:12:14;3.78;;;1.85;;
22476;SDS011;65006;51.698;-0.292;2023-05-19T12:14:40;2.65;;;1.23;;
22476;SDS011;65006;51.698;-0.292;2023-05-19T12:17:13;1.73;;;1.23;;
22476;SDS011;65006;51.698;-0.292;2023-05-19T12:19:44;4.00;;;1.55;;
22476;SDS011;65006;51.698;-0.292;2023-05-19T12:22:10;1.52;;;1.13;;
22476;SDS011;65006;51.698;-0.292;2023-05-19T12:24:36;2.83;;;1.60;;
22476;SDS011;65006;51.698;-0.292;2023-05-19T12:27:09;1.77;;;1.30;;
22476;SDS011;65006;51.698;-0.292;2023-05-19T12:29:37;3.28;;;1.52;;
22476;SDS011;65006;51.698;-0.292;2023-05-19T12:32:04;4.43;;;1.52;;
22476;SDS011;65006;51.698;-0.292;2023-05-19T12:34:30;1.52;;;1.25;;
22476;SDS011;65006;51.698;-0.292;2023-05-19T12:36:56;1.88;;;1.40;;
22476;SDS011;65006;51.698;-0.292;2023-05-19T12:39:23;2.70;;;1.63;;
22476;SDS011;65006;51.698;-0.292;2023-05-19T12:41:49;2.10;;;1.50;;
22476;SDS011;65006;51.698;-0.292;2023-05-19T12:44:15;2.55;;;1.02;;
22476;SDS011;65006;51.698;-0.292;2023-05-19T12:46:42;3.10;;;1.50;;
22476;SDS011;65006;51.698;-0.292;2023-05-19T12:49:08;2.67;;;1.38;;
22476;SDS011;65006;51.698;-0.292;2023-05-19T12:51:35;1.88;;;1.10;;
22476;SDS011;65006;51.698;-0.292;2023-05-19T12:54:01;3.67;;;1.20;;
22476;SDS011;65006;51.698;-0.292;2023-05-19T12:56:28;2.05;;;1.10;;
22476;SDS011;65006;51.698;-0.292;2023-05-19T12:58:54;3.58;;;1.40;;
22476;SDS011;65006;51.698;-0.292;2023-05-19T13:01:21;2.20;;;1.40;;
22476;SDS011;65006;51.698;-0.292;2023-05-19T13:03:47;4.13;;;1.85;;
22476;SDS011;65006;51.698;-0.292;2023-05-19T13:06:13;1.92;;;1.13;;
22476;SDS011;65006;51.698;-0.292;2023-05-19T13:08:39;1.75;;;1.02;;
22476;SDS011;65006;51.698;-0.292;2023-05-19T13:11:05;2.80;;;1.55;;
22476;SDS011;65006;51.698;-0.292;2023-05-19T13:13:31;2.70;;;1.60;;
22476;SDS011;65006;51.698;-0.292;2023-05-19T13:15:58;2.15;;;1.15;;
22476;SDS011;65006;51.698;-0.292;2023-05-19T13:18:24;1.88;;;1.33;;
22476;SDS011;65006;51.698;-0.292;2023-05-19T13:20:51;3.28;;;1.52;;
22476;SDS011;65006;51.698;-0.292;2023-05-19T13:25:44;2.90;;;1.42;;
22476;SDS011;65006;51.698;-0.292;2023-05-19T13:28:10;2.80;;;1.10;;
22476;SDS011;65006;51.698;-0.292;2023-05-19T13:30:36;1.67;;;1.27;;
22476;SDS011;65006;51.698;-0.292;2023-05-19T13:33:03;3.10;;;1.50;;
22476;SDS011;65006;51.698;-0.292;2023-05-19T13:35:29;1.55;;;1.15;;
22476;SDS011;65006;51.698;-0.292;2023-05-19T13:38:01;3.63;;;2.00;;
22476;SDS011;65006;51.698;-0.292;2023-05-19T13:40:28;1.58;;;1.08;;
22476;SDS011;65006;51.698;-0.292;2023-05-19T13:42:56;2.83;;;1.77;;
22476;SDS011;65006;51.698;-0.292;2023-05-19T13:45:23;1.90;;;1.40;;
22476;SDS011;65006;51.698;-0.292;2023-05-19T13:47:49;4.40;;;1.70;;
22476;SDS011;65006;51.698;-0.292;2023-05-19T13:50:15;4.07;;;1.55;;
22476;SDS011;65006;51.698;-0.292;2023-05-19T13:52:41;2.00;;;1.20;;
22476;SDS011;65006;51.698;-0.292;2023-05-19T13:55:07;1.92;;;1.45;;
22476;SDS011;65006;51.698;-0.292;2023-05-19T13:57:33;2.67;;;1.48;;
22476;SDS011;65006;51.698;-0.292;2023-05-19T13:59:59;2.58;;;1.55;;
22476;SDS011;65006;51.698;-0.292;2023-05-19T14:02:25;4.18;;;2.42;;
22476;SDS011;65006;51.698;-0.292;2023-05-19T14:04:51;2.20;;;0.85;;
22476;SDS011;65006;51.698;-0.292;2023-05-19T14:07:18;2.30;;;1.30;;
22476;SDS011;65006;51.698;-0.292;2023-05-19T14:09:44;4.50;;;1.70;;
22476;SDS011;65006;51.698;-0.292;2023-05-19T14:12:10;4.10;;;1.90;;
22476;SDS011;65006;51.698;-0.292;2023-05-19T14:14:36;2.58;;;1.45;;
22476;SDS011;65006;51.698;-0.292;2023-05-19T14:17:02;2.92;;;1.55;;
22476;SDS011;65006;51.698;-0.292;2023-05-19T14:19:29;2.72;;;1.50;;
22476;SDS011;65006;51.698;-0.292;2023-05-19T14:21:56;3.85;;;1.73;;
22476;SDS011;65006;51.698;-0.292;2023-05-19T14:24:22;2.88;;;1.63;;
22476;SDS011;65006;51.698;-0.292;2023-05-19T14:26:48;2.53;;;1.60;;
22476;SDS011;65006;51.698;-0.292;2023-05-19T14:29:14;1.27;;;0.93;;
22476;SDS011;65006;51.698;-0.292;2023-05-19T14:31:40;2.28;;;1.10;;
22476;SDS011;65006;51.698;-0.292;2023-05-19T14:34:06;3.03;;;1.70;;
22476;SDS011;65006;51.698;-0.292;2023-05-19T14:36:32;3.15;;;1.42;;
22476;SDS011;65006;51.698;-0.292;2023-05-19T14:38:59;2.72;;;1.90;;
22476;SDS011;65006;51.698;-0.292;2023-05-19T14:41:25;2.53;;;1.73;;
22476;SDS011;65006;51.698;-0.292;2023-05-19T14:43:51;2.38;;;1.70;;
22476;SDS011;65006;51.698;-0.292;2023-05-19T14:46:17;3.42;;;1.55;;
22476;SDS011;65006;51.698;-0.292;2023-05-19T14:48:43;2.67;;;1.80;;
22476;SDS011;65006;51.698;-0.292;2023-05-19T14:51:09;4.78;;;1.58;;
22476;SDS011;65006;51.698;-0.292;2023-05-19T14:53:35;2.90;;;1.70;;
22476;SDS011;65006;51.698;-0.292;2023-05-19T14:56:01;3.60;;;1.92;;
22476;SDS011;65006;51.698;-0.292;2023-05-19T14:58:27;4.20;;;2.17;;
22476;SDS011;65006;51.698;-0.292;2023-05-19T15:00:53;3.03;;;1.83;;
22476;SDS011;65006;51.698;-0.292;2023-05-19T15:03:19;3.35;;;1.75;;
22476;SDS011;65006;51.698;-0.292;2023-05-19T15:05:47;3.42;;;1.95;;
22476;SDS011;65006;51.698;-0.292;2023-05-19T15:08:13;5.05;;;1.95;;